sensor_id;sensor_type;location;lat;lon;timestamp;P1;durP1;ratioP1;P2;durP2;ratioP2
3002;SDS011;1511;51.326;12.344;2023-08-06T00:01:11;3.37;;;3.17;;
3002;SDS011;1511;51.326;12.344;2023-08-06T00:03:37;3.57;;;3.30;;
3002;SDS011;1511;51.326;12.344;2023-08-06T00:06:04;4.87;;;3.43;;
3002;SDS011;1511;51.326;12.344;2023-08-06T00:08:33;3.77;;;3.57;;
3002;SDS011;1511;51.326;12.344;2023-08-06T00:10:59;2.87;;;2.60;;
3002;SDS011;1511;51.326;12.344;2023-08-06T00:13:27;3.03;;;2.77;;
3002;SDS011;1511;51.326;12.344;2023-08-06T00:15:52;2.87;;;2.60;;
3002;SDS011;1511;51.326;12.344;2023-08-06T00:18:18;3.80;;;3.50;;
3002;SDS011;1511;51.326;12.344;2023-08-06T00:20:44;3.27;;;3.07;;
3002;SDS011;1511;51.326;12.344;2023-08-06T00:23:09;3.73;;;3.30;;
3002;SDS011;1511;51.326;12.344;2023-08-06T00:25:36;4.77;;;3.30;;
3002;SDS011;1511;51.326;12.344;2023-08-06T00:28:02;3.87;;;3.60;;
3002;SDS011;1511;51.326;12.344;2023-08-06T00:30:28;4.73;;;3.57;;
3002;SDS011;1511;51.326;12.344;2023-08-06T00:32:55;5.60;;;3.20;;
3002;SDS011;1511;51.326;12.344;2023-08-06T00:35:21;3.27;;;2.63;;
3002;SDS011;1511;51.326;12.344;2023-08-06T00:37:49;3.40;;;3.17;;
3002;SDS011;1511;51.326;12.344;2023-08-06T00:40:15;4.43;;;3.80;;
3002;SDS011;1511;51.326;12.344;2023-08-06T00:42:45;5.53;;;3.40;;
3002;SDS011;1511;51.326;12.344;2023-08-06T00:45:11;3.57;;;3.07;;
3002;SDS011;1511;51.326;12.344;2023-08-06T00:47:39;3.23;;;3.03;;
3002;SDS011;1511;51.326;12.344;2023-08-06T00:50:07;3.77;;;3.37;;
3002;SDS011;1511;51.326;12.344;2023-08-06T00:52:34;3.60;;;3.40;;
3002;SDS011;1511;51.326;12.344;2023-08-06T00:55:01;2.90;;;2.80;;
3002;SDS011;1511;51.326;12.344;2023-08-06T00:57:27;3.27;;;3.10;;
3002;SDS011;1511;51.326;12.344;2023-08-06T00:59:53;3.97;;;3.77;;
3002;SDS011;1511;51.326;12.344;2023-08-06T01:02:20;4.00;;;3.67;;
3002;SDS011;1511;51.326;12.344;2023-08-06T01:04:50;3.00;;;2.90;;
3002;SDS011;1511;51.326;12.344;2023-08-06T01:07:30;4.00;;;3.70;;
3002;SDS011;1511;51.326;12.344;2023-08-06T01:10:27;4.23;;;3.93;;
3002;SDS011;1511;51.326;12.344;2023-08-06T01:16:04;3.87;;;3.57;;
3002;SDS011;1511;51.326;12.344;2023-08-06T01:18:31;4.17;;;3.77;;
3002;SDS011;1511;51.326;12.344;2023-08-06T01:20:57;3.50;;;3.30;;
3002;SDS011;1511;51.326;12.344;2023-08-06T01:23:23;3.43;;;3.17;;
3002;SDS011;1511;51.326;12.344;2023-08-06T01:26:01;3.47;;;3.27;;
3002;SDS011;1511;51.326;12.344;2023-08-06T01:31:26;3.73;;;3.20;;
3002;SDS011;1511;51.326;12.344;2023-08-06T01:33:59;5.03;;;4.00;;
3002;SDS011;1511;51.326;12.344;2023-08-06T01:36:28;4.00;;;3.30;;
3002;SDS011;1511;51.326;12.344;2023-08-06T01:38:55;4.03;;;3.73;;
3002;SDS011;1511;51.326;12.344;2023-08-06T01:41:22;3.77;;;3.47;;
3002;SDS011;1511;51.326;12.344;2023-08-06T01:43:48;3.80;;;3.50;;
3002;SDS011;1511;51.326;12.344;2023-08-06T01:46:16;7.20;;;4.77;;
3002;SDS011;1511;51.326;12.344;2023-08-06T01:48:42;3.57;;;3.47;;
3002;SDS011;1511;51.326;12.344;2023-08-06T01:51:10;4.83;;;3.60;;
3002;SDS011;1511;51.326;12.344;2023-08-06T01:53:36;3.80;;;3.50;;
3002;SDS011;1511;51.326;12.344;2023-08-06T01:56:02;3.73;;;3.53;;
3002;SDS011;1511;51.326;12.344;2023-08-06T01:58:28;4.00;;;3.70;;
3002;SDS011;1511;51.326;12.344;2023-08-06T02:00:56;3.93;;;3.70;;
3002;SDS011;1511;51.326;12.344;2023-08-06T02:03:22;4.83;;;3.60;;
3002;SDS011;1511;51.326;12.344;2023-08-06T02:05:50;4.67;;;4.27;;
3002;SDS011;1511;51.326;12.344;2023-08-06T02:08:18;4.40;;;3.80;;
3002;SDS011;1511;51.326;12.344;2023-08-06T02:10:46;4.13;;;3.70;;
3002;SDS011;1511;51.326;12.344;2023-08-06T02:13:15;4.37;;;4.07;;
3002;SDS011;1511;51.326;12.344;2023-08-06T02:15:44;4.07;;;3.70;;
3002;SDS011;1511;51.326;12.344;2023-08-06T02:18:13;4.40;;;3.63;;
3002;SDS011;1511;51.326;12.344;2023-08-06T02:20:42;5.87;;;5.37;;
3002;SDS011;1511;51.326;12.344;2023-08-06T02:23:08;4.50;;;3.80;;
3002;SDS011;1511;51.326;12.344;2023-08-06T02:25:34;4.27;;;3.97;;
3002;SDS011;1511;51.326;12.344;2023-08-06T02:28:03;4.13;;;3.83;;
3002;SDS011;1511;51.326;12.344;2023-08-06T02:30:31;3.77;;;3.47;;
3002;SDS011;1511;51.326;12.344;2023-08-06T02:32:57;4.33;;;4.13;;
3002;SDS011;1511;51.326;12.344;2023-08-06T02:35:23;3.23;;;2.93;;
3002;SDS011;1511;51.326;12.344;2023-08-06T02:37:48;4.63;;;3.50;;
3002;SDS011;1511;51.326;12.344;2023-08-06T02:40:19;3.63;;;3.43;;
3002;SDS011;1511;51.326;12.344;2023-08-06T02:42:44;3.67;;;3.37;;
3002;SDS011;1511;51.326;12.344;2023-08-06T02:45:10;4.17;;;3.80;;
3002;SDS011;1511;51.326;12.344;2023-08-06T02:47:36;4.37;;;4.07;;
3002;SDS011;1511;51.326;12.344;2023-08-06T02:50:04;3.87;;;3.50;;
3002;SDS011;1511;51.326;12.344;2023-08-06T02:52:31;4.77;;;4.37;;
3002;SDS011;1511;51.326;12.344;2023-08-06T02:54:59;7.20;;;3.97;;
3002;SDS011;1511;51.326;12.344;2023-08-06T02:57:25;4.33;;;3.93;;
3002;SDS011;1511;51.326;12.344;2023-08-06T02:59:51;4.10;;;3.80;;
3002;SDS011;1511;51.326;12.344;2023-08-06T03:02:16;4.40;;;4.10;;
3002;SDS011;1511;51.326;12.344;2023-08-06T03:04:44;4.27;;;3.97;;
3002;SDS011;1511;51.326;12.344;2023-08-06T03:07:12;3.90;;;3.60;;
3002;SDS011;1511;51.326;12.344;2023-08-06T03:09:38;4.20;;;3.90;;
3002;SDS011;1511;51.326;12.344;2023-08-06T03:12:04;4.20;;;3.90;;
3002;SDS011;1511;51.326;12.344;2023-08-06T03:14:32;4.30;;;3.90;;
3002;SDS011;1511;51.326;12.344;2023-08-06T03:17:01;4.50;;;4.10;;
3002;SDS011;1511;51.326;12.344;2023-08-06T03:19:29;4.13;;;3.93;;
3002;SDS011;1511;51.326;12.344;2023-08-06T03:21:54;4.17;;;3.70;;
3002;SDS011;1511;51.326;12.344;2023-08-06T03:24:20;5.33;;;4.30;;
3002;SDS011;1511;51.326;12.344;2023-08-06T03:26:46;4.27;;;3.90;;
3002;SDS011;1511;51.326;12.344;2023-08-06T03:29:12;4.13;;;3.80;;
3002;SDS011;1511;51.326;12.344;2023-08-06T03:31:40;5.20;;;4.60;;
3002;SDS011;1511;51.326;12.344;2023-08-06T03:34:06;5.00;;;4.60;;
3002;SDS011;1511;51.326;12.344;2023-08-06T03:36:32;4.13;;;3.83;;
3002;SDS011;1511;51.326;12.344;2023-08-06T03:39:00;5.30;;;4.60;;
3002;SDS011;1511;51.326;12.344;2023-08-06T03:41:26;5.70;;;4.23;;
3002;SDS011;1511;51.326;12.344;2023-08-06T03:43:54;4.13;;;3.27;;
3002;SDS011;1511;51.326;12.344;2023-08-06T03:46:23;4.47;;;4.17;;
3002;SDS011;1511;51.326;12.344;2023-08-06T03:48:48;4.03;;;3.80;;
3002;SDS011;1511;51.326;12.344;2023-08-06T03:51:14;4.83;;;4.43;;
3002;SDS011;1511;51.326;12.344;2023-08-06T03:53:40;4.60;;;4.20;;
3002;SDS011;1511;51.326;12.344;2023-08-06T03:56:06;5.10;;;4.60;;
3002;SDS011;1511;51.326;12.344;2023-08-06T03:58:31;5.07;;;4.57;;
3002;SDS011;1511;51.326;12.344;2023-08-06T04:00:58;4.90;;;4.47;;
3002;SDS011;1511;51.326;12.344;2023-08-06T04:03:33;5.07;;;4.57;;
3002;SDS011;1511;51.326;12.344;2023-08-06T04:05:59;5.23;;;4.57;;
3002;SDS011;1511;51.326;12.344;2023-08-06T04:08:26;5.37;;;4.70;;
3002;SDS011;1511;51.326;12.344;2023-08-06T04:10:52;5.37;;;4.37;;
3002;SDS011;1511;51.326;12.344;2023-08-06T04:13:20;4.37;;;4.17;;
3002;SDS011;1511;51.326;12.344;2023-08-06T04:15:48;4.80;;;4.37;;
3002;SDS011;1511;51.326;12.344;2023-08-06T04:18:18;5.43;;;5.00;;
3002;SDS011;1511;51.326;12.344;2023-08-06T04:20:46;4.00;;;3.80;;
3002;SDS011;1511;51.326;12.344;2023-08-06T04:23:17;7.10;;;4.93;;
3002;SDS011;1511;51.326;12.344;2023-08-06T04:25:50;4.30;;;4.10;;
3002;SDS011;1511;51.326;12.344;2023-08-06T04:28:16;3.80;;;3.60;;
3002;SDS011;1511;51.326;12.344;2023-08-06T04:30:44;4.20;;;3.90;;
3002;SDS011;1511;51.326;12.344;2023-08-06T04:33:09;3.70;;;3.40;;
3002;SDS011;1511;51.326;12.344;2023-08-06T04:35:35;3.37;;;3.17;;
3002;SDS011;1511;51.326;12.344;2023-08-06T04:38:01;3.73;;;3.00;;
3002;SDS011;1511;51.326;12.344;2023-08-06T04:40:27;3.40;;;3.10;;
3002;SDS011;1511;51.326;12.344;2023-08-06T04:42:53;3.20;;;2.90;;
3002;SDS011;1511;51.326;12.344;2023-08-06T04:45:21;2.40;;;2.30;;
3002;SDS011;1511;51.326;12.344;2023-08-06T04:47:49;2.13;;;1.80;;
3002;SDS011;1511;51.326;12.344;2023-08-06T04:50:15;2.27;;;2.07;;
3002;SDS011;1511;51.326;12.344;2023-08-06T04:52:40;2.33;;;2.13;;
3002;SDS011;1511;51.326;12.344;2023-08-06T04:55:06;2.00;;;1.90;;
3002;SDS011;1511;51.326;12.344;2023-08-06T04:57:32;1.90;;;1.80;;
3002;SDS011;1511;51.326;12.344;2023-08-06T04:59:58;1.80;;;1.70;;
3002;SDS011;1511;51.326;12.344;2023-08-06T05:02:24;2.60;;;2.20;;
3002;SDS011;1511;51.326;12.344;2023-08-06T05:04:52;6.93;;;2.40;;
3002;SDS011;1511;51.326;12.344;2023-08-06T05:07:21;1.70;;;1.60;;
3002;SDS011;1511;51.326;12.344;2023-08-06T05:09:46;2.20;;;2.10;;
3002;SDS011;1511;51.326;12.344;2023-08-06T05:12:15;2.37;;;2.17;;
3002;SDS011;1511;51.326;12.344;2023-08-06T05:14:41;2.47;;;1.90;;
3002;SDS011;1511;51.326;12.344;2023-08-06T05:17:07;2.93;;;2.40;;
3002;SDS011;1511;51.326;12.344;2023-08-06T05:19:32;1.90;;;1.80;;
3002;SDS011;1511;51.326;12.344;2023-08-06T05:21:58;1.90;;;1.80;;
3002;SDS011;1511;51.326;12.344;2023-08-06T05:24:24;2.63;;;2.53;;
3002;SDS011;1511;51.326;12.344;2023-08-06T05:26:54;1.90;;;1.80;;
3002;SDS011;1511;51.326;12.344;2023-08-06T05:29:23;2.17;;;2.07;;
3002;SDS011;1511;51.326;12.344;2023-08-06T05:31:49;2.40;;;1.90;;
3002;SDS011;1511;51.326;12.344;2023-08-06T05:34:14;2.63;;;2.10;;
3002;SDS011;1511;51.326;12.344;2023-08-06T05:36:40;2.30;;;1.53;;
3002;SDS011;1511;51.326;12.344;2023-08-06T05:39:06;2.27;;;2.07;;
3002;SDS011;1511;51.326;12.344;2023-08-06T05:41:34;2.07;;;1.87;;
3002;SDS011;1511;51.326;12.344;2023-08-06T05:43:59;1.70;;;1.60;;
3002;SDS011;1511;51.326;12.344;2023-08-06T05:46:25;1.63;;;1.53;;
3002;SDS011;1511;51.326;12.344;2023-08-06T05:48:53;2.20;;;2.00;;
3002;SDS011;1511;51.326;12.344;2023-08-06T05:51:19;2.03;;;1.83;;
3002;SDS011;1511;51.326;12.344;2023-08-06T05:53:45;1.93;;;1.83;;
3002;SDS011;1511;51.326;12.344;2023-08-06T05:56:12;1.17;;;1.17;;
3002;SDS011;1511;51.326;12.344;2023-08-06T05:58:40;2.40;;;1.83;;
3002;SDS011;1511;51.326;12.344;2023-08-06T06:01:06;1.40;;;1.40;;
3002;SDS011;1511;51.326;12.344;2023-08-06T06:03:31;1.37;;;1.10;;
3002;SDS011;1511;51.326;12.344;2023-08-06T06:05:57;1.00;;;1.00;;
3002;SDS011;1511;51.326;12.344;2023-08-06T06:08:26;1.40;;;1.40;;
3002;SDS011;1511;51.326;12.344;2023-08-06T06:10:52;2.70;;;1.80;;
3002;SDS011;1511;51.326;12.344;2023-08-06T06:13:17;2.83;;;1.50;;
3002;SDS011;1511;51.326;12.344;2023-08-06T06:15:43;1.10;;;1.10;;
3002;SDS011;1511;51.326;12.344;2023-08-06T06:18:09;3.17;;;1.83;;
3002;SDS011;1511;51.326;12.344;2023-08-06T06:20:34;2.30;;;1.30;;
3002;SDS011;1511;51.326;12.344;2023-08-06T06:23:03;1.27;;;1.10;;
3002;SDS011;1511;51.326;12.344;2023-08-06T06:25:33;0.90;;;0.90;;
3002;SDS011;1511;51.326;12.344;2023-08-06T06:27:59;1.10;;;1.10;;
3002;SDS011;1511;51.326;12.344;2023-08-06T06:30:25;0.97;;;0.97;;
3002;SDS011;1511;51.326;12.344;2023-08-06T06:32:55;1.10;;;1.00;;
3002;SDS011;1511;51.326;12.344;2023-08-06T06:35:23;1.10;;;1.00;;
3002;SDS011;1511;51.326;12.344;2023-08-06T06:37:49;0.83;;;0.83;;
3002;SDS011;1511;51.326;12.344;2023-08-06T06:40:14;0.90;;;0.90;;
3002;SDS011;1511;51.326;12.344;2023-08-06T06:42:43;1.10;;;1.00;;
3002;SDS011;1511;51.326;12.344;2023-08-06T06:45:08;0.90;;;0.90;;
3002;SDS011;1511;51.326;12.344;2023-08-06T06:47:37;0.90;;;0.90;;
3002;SDS011;1511;51.326;12.344;2023-08-06T06:50:02;1.30;;;1.30;;
3002;SDS011;1511;51.326;12.344;2023-08-06T06:52:31;1.10;;;1.00;;
3002;SDS011;1511;51.326;12.344;2023-08-06T06:55:01;0.83;;;0.83;;
3002;SDS011;1511;51.326;12.344;2023-08-06T06:57:27;5.33;;;1.43;;
3002;SDS011;1511;51.326;12.344;2023-08-06T06:59:52;1.97;;;0.93;;
3002;SDS011;1511;51.326;12.344;2023-08-06T07:02:18;0.90;;;0.90;;
3002;SDS011;1511;51.326;12.344;2023-08-06T07:04:44;1.00;;;1.00;;
3002;SDS011;1511;51.326;12.344;2023-08-06T07:07:10;1.37;;;1.27;;
3002;SDS011;1511;51.326;12.344;2023-08-06T07:09:35;1.70;;;1.10;;
3002;SDS011;1511;51.326;12.344;2023-08-06T07:12:01;2.03;;;1.20;;
3002;SDS011;1511;51.326;12.344;2023-08-06T07:14:28;0.90;;;0.80;;
3002;SDS011;1511;51.326;12.344;2023-08-06T07:16:54;4.57;;;1.00;;
3002;SDS011;1511;51.326;12.344;2023-08-06T07:19:23;1.60;;;0.90;;
3002;SDS011;1511;51.326;12.344;2023-08-06T07:21:49;1.83;;;0.90;;
3002;SDS011;1511;51.326;12.344;2023-08-06T07:24:15;2.13;;;1.13;;
3002;SDS011;1511;51.326;12.344;2023-08-06T07:26:43;1.20;;;1.20;;
3002;SDS011;1511;51.326;12.344;2023-08-06T07:29:11;1.07;;;1.03;;
3002;SDS011;1511;51.326;12.344;2023-08-06T07:31:44;1.30;;;1.30;;
3002;SDS011;1511;51.326;12.344;2023-08-06T07:34:11;1.63;;;1.20;;
3002;SDS011;1511;51.326;12.344;2023-08-06T07:36:37;1.27;;;1.00;;
3002;SDS011;1511;51.326;12.344;2023-08-06T07:39:03;1.43;;;1.33;;
3002;SDS011;1511;51.326;12.344;2023-08-06T07:41:31;1.37;;;1.37;;
3002;SDS011;1511;51.326;12.344;2023-08-06T07:43:57;1.03;;;1.03;;
3002;SDS011;1511;51.326;12.344;2023-08-06T07:46:22;1.00;;;1.00;;
3002;SDS011;1511;51.326;12.344;2023-08-06T07:48:48;1.00;;;1.00;;
3002;SDS011;1511;51.326;12.344;2023-08-06T07:51:14;3.07;;;1.03;;
3002;SDS011;1511;51.326;12.344;2023-08-06T07:53:42;3.10;;;0.90;;
3002;SDS011;1511;51.326;12.344;2023-08-06T07:56:08;1.73;;;0.90;;
3002;SDS011;1511;51.326;12.344;2023-08-06T07:58:34;1.27;;;1.00;;
3002;SDS011;1511;51.326;12.344;2023-08-06T08:00:59;2.53;;;1.30;;
3002;SDS011;1511;51.326;12.344;2023-08-06T08:03:25;0.90;;;0.90;;
3002;SDS011;1511;51.326;12.344;2023-08-06T08:05:53;1.33;;;1.00;;
3002;SDS011;1511;51.326;12.344;2023-08-06T08:08:25;1.13;;;1.13;;
3002;SDS011;1511;51.326;12.344;2023-08-06T08:10:53;1.63;;;1.53;;
3002;SDS011;1511;51.326;12.344;2023-08-06T08:13:20;0.90;;;0.90;;
3002;SDS011;1511;51.326;12.344;2023-08-06T08:15:46;4.00;;;3.63;;
3002;SDS011;1511;51.326;12.344;2023-08-06T08:18:12;1.50;;;1.40;;
3002;SDS011;1511;51.326;12.344;2023-08-06T08:20:38;0.90;;;0.90;;
3002;SDS011;1511;51.326;12.344;2023-08-06T08:23:05;1.10;;;1.10;;
3002;SDS011;1511;51.326;12.344;2023-08-06T08:25:31;1.17;;;1.00;;
3002;SDS011;1511;51.326;12.344;2023-08-06T08:27:59;1.83;;;1.27;;
3002;SDS011;1511;51.326;12.344;2023-08-06T08:30:24;1.10;;;1.00;;
3002;SDS011;1511;51.326;12.344;2023-08-06T08:32:52;0.80;;;0.80;;
3002;SDS011;1511;51.326;12.344;2023-08-06T08:35:21;1.20;;;1.20;;
3002;SDS011;1511;51.326;12.344;2023-08-06T08:37:46;1.43;;;1.07;;
3002;SDS011;1511;51.326;12.344;2023-08-06T08:40:13;1.23;;;1.13;;
3002;SDS011;1511;51.326;12.344;2023-08-06T08:42:42;1.13;;;1.13;;
3002;SDS011;1511;51.326;12.344;2023-08-06T08:45:14;1.00;;;0.90;;
3002;SDS011;1511;51.326;12.344;2023-08-06T08:47:43;1.90;;;1.33;;
3002;SDS011;1511;51.326;12.344;2023-08-06T08:50:14;1.70;;;1.13;;
3002;SDS011;1511;51.326;12.344;2023-08-06T08:52:41;1.70;;;1.20;;
3002;SDS011;1511;51.326;12.344;2023-08-06T08:55:10;1.30;;;1.20;;
3002;SDS011;1511;51.326;12.344;2023-08-06T08:57:40;2.80;;;1.70;;
3002;SDS011;1511;51.326;12.344;2023-08-06T09:00:06;1.20;;;1.20;;
3002;SDS011;1511;51.326;12.344;2023-08-06T09:02:33;1.20;;;1.20;;
3002;SDS011;1511;51.326;12.344;2023-08-06T09:05:00;1.30;;;1.20;;
3002;SDS011;1511;51.326;12.344;2023-08-06T09:07:29;1.57;;;1.47;;
3002;SDS011;1511;51.326;12.344;2023-08-06T09:10:12;1.57;;;1.30;;
3002;SDS011;1511;51.326;12.344;2023-08-06T09:12:46;2.10;;;1.30;;
3002;SDS011;1511;51.326;12.344;2023-08-06T09:15:18;3.00;;;2.80;;
3002;SDS011;1511;51.326;12.344;2023-08-06T09:17:49;2.73;;;1.40;;
3002;SDS011;1511;51.326;12.344;2023-08-06T09:20:15;1.93;;;1.57;;
3002;SDS011;1511;51.326;12.344;2023-08-06T09:22:44;1.53;;;1.23;;
3002;SDS011;1511;51.326;12.344;2023-08-06T09:25:13;1.37;;;1.27;;
3002;SDS011;1511;51.326;12.344;2023-08-06T09:27:51;1.90;;;1.27;;
3002;SDS011;1511;51.326;12.344;2023-08-06T09:30:33;1.50;;;1.43;;
3002;SDS011;1511;51.326;12.344;2023-08-06T09:33:04;1.63;;;1.37;;
3002;SDS011;1511;51.326;12.344;2023-08-06T09:35:36;1.60;;;1.40;;
3002;SDS011;1511;51.326;12.344;2023-08-06T09:38:08;1.13;;;1.03;;
3002;SDS011;1511;51.326;12.344;2023-08-06T09:40:35;1.20;;;1.07;;
3002;SDS011;1511;51.326;12.344;2023-08-06T09:43:02;3.73;;;1.50;;
3002;SDS011;1511;51.326;12.344;2023-08-06T09:45:32;1.53;;;1.10;;
3002;SDS011;1511;51.326;12.344;2023-08-06T09:48:05;1.53;;;1.30;;
3002;SDS011;1511;51.326;12.344;2023-08-06T09:50:35;1.50;;;1.43;;
3002;SDS011;1511;51.326;12.344;2023-08-06T09:53:06;1.43;;;1.00;;
3002;SDS011;1511;51.326;12.344;2023-08-06T09:55:38;1.60;;;1.50;;
3002;SDS011;1511;51.326;12.344;2023-08-06T09:58:04;1.80;;;1.50;;
3002;SDS011;1511;51.326;12.344;2023-08-06T10:00:31;1.60;;;1.50;;
3002;SDS011;1511;51.326;12.344;2023-08-06T10:02:59;1.57;;;1.20;;
3002;SDS011;1511;51.326;12.344;2023-08-06T10:05:25;4.10;;;1.73;;
3002;SDS011;1511;51.326;12.344;2023-08-06T10:07:52;3.37;;;1.33;;
3002;SDS011;1511;51.326;12.344;2023-08-06T10:10:20;2.57;;;1.77;;
3002;SDS011;1511;51.326;12.344;2023-08-06T10:12:48;1.43;;;1.30;;
3002;SDS011;1511;51.326;12.344;2023-08-06T10:15:19;2.10;;;1.90;;
3002;SDS011;1511;51.326;12.344;2023-08-06T10:17:51;2.20;;;1.60;;
3002;SDS011;1511;51.326;12.344;2023-08-06T10:20:26;1.60;;;1.50;;
3002;SDS011;1511;51.326;12.344;2023-08-06T10:23:04;1.70;;;1.60;;
3002;SDS011;1511;51.326;12.344;2023-08-06T10:25:35;1.27;;;1.27;;
3002;SDS011;1511;51.326;12.344;2023-08-06T10:28:10;1.83;;;1.73;;
3002;SDS011;1511;51.326;12.344;2023-08-06T10:30:45;2.40;;;2.20;;
3002;SDS011;1511;51.326;12.344;2023-08-06T10:33:14;4.20;;;1.37;;
3002;SDS011;1511;51.326;12.344;2023-08-06T10:35:49;1.53;;;1.00;;
3002;SDS011;1511;51.326;12.344;2023-08-06T10:38:21;1.70;;;1.60;;
3002;SDS011;1511;51.326;12.344;2023-08-06T10:43:30;1.20;;;1.20;;
3002;SDS011;1511;51.326;12.344;2023-08-06T10:46:09;2.80;;;1.60;;
3002;SDS011;1511;51.326;12.344;2023-08-06T10:48:44;1.80;;;1.47;;
3002;SDS011;1511;51.326;12.344;2023-08-06T10:51:13;1.80;;;1.70;;
3002;SDS011;1511;51.326;12.344;2023-08-06T10:53:46;1.27;;;1.27;;
3002;SDS011;1511;51.326;12.344;2023-08-06T10:58:51;2.07;;;1.97;;
3002;SDS011;1511;51.326;12.344;2023-08-06T11:01:21;2.10;;;1.90;;
3002;SDS011;1511;51.326;12.344;2023-08-06T11:03:53;2.47;;;2.37;;
3002;SDS011;1511;51.326;12.344;2023-08-06T11:06:20;2.30;;;2.10;;
3002;SDS011;1511;51.326;12.344;2023-08-06T11:08:54;2.83;;;2.63;;
3002;SDS011;1511;51.326;12.344;2023-08-06T11:11:20;2.00;;;1.83;;
3002;SDS011;1511;51.326;12.344;2023-08-06T11:13:48;2.70;;;2.37;;
3002;SDS011;1511;51.326;12.344;2023-08-06T11:16:16;2.10;;;2.03;;
3002;SDS011;1511;51.326;12.344;2023-08-06T11:18:44;2.47;;;2.27;;
3002;SDS011;1511;51.326;12.344;2023-08-06T11:21:11;1.90;;;1.80;;
3002;SDS011;1511;51.326;12.344;2023-08-06T11:23:41;2.70;;;2.60;;
3002;SDS011;1511;51.326;12.344;2023-08-06T11:26:10;3.97;;;2.50;;
3002;SDS011;1511;51.326;12.344;2023-08-06T11:28:43;2.07;;;1.97;;
3002;SDS011;1511;51.326;12.344;2023-08-06T11:31:18;2.07;;;1.97;;
3002;SDS011;1511;51.326;12.344;2023-08-06T11:33:49;2.53;;;2.10;;
3002;SDS011;1511;51.326;12.344;2023-08-06T11:36:16;2.40;;;2.20;;
3002;SDS011;1511;51.326;12.344;2023-08-06T11:38:54;4.00;;;2.30;;
3002;SDS011;1511;51.326;12.344;2023-08-06T11:41:20;2.80;;;2.00;;
3002;SDS011;1511;51.326;12.344;2023-08-06T11:43:46;1.00;;;1.00;;
3002;SDS011;1511;51.326;12.344;2023-08-06T11:46:14;1.47;;;1.37;;
3002;SDS011;1511;51.326;12.344;2023-08-06T11:48:54;1.50;;;1.47;;
3002;SDS011;1511;51.326;12.344;2023-08-06T11:51:24;1.70;;;1.60;;
3002;SDS011;1511;51.326;12.344;2023-08-06T11:53:57;1.03;;;1.00;;
3002;SDS011;1511;51.326;12.344;2023-08-06T11:56:26;2.47;;;1.53;;
3002;SDS011;1511;51.326;12.344;2023-08-06T11:58:54;2.70;;;1.23;;
3002;SDS011;1511;51.326;12.344;2023-08-06T12:01:20;1.10;;;1.10;;
3002;SDS011;1511;51.326;12.344;2023-08-06T12:03:49;1.63;;;1.10;;
3002;SDS011;1511;51.326;12.344;2023-08-06T12:06:17;1.13;;;1.13;;
3002;SDS011;1511;51.326;12.344;2023-08-06T12:08:43;1.63;;;1.40;;
3002;SDS011;1511;51.326;12.344;2023-08-06T12:11:09;1.07;;;1.07;;
3002;SDS011;1511;51.326;12.344;2023-08-06T12:13:37;3.07;;;1.50;;
3002;SDS011;1511;51.326;12.344;2023-08-06T12:16:05;0.83;;;0.80;;
3002;SDS011;1511;51.326;12.344;2023-08-06T12:18:31;0.80;;;0.80;;
3002;SDS011;1511;51.326;12.344;2023-08-06T12:20:57;1.03;;;0.97;;
3002;SDS011;1511;51.326;12.344;2023-08-06T12:23:23;1.27;;;1.17;;
3002;SDS011;1511;51.326;12.344;2023-08-06T12:25:49;2.83;;;1.87;;
3002;SDS011;1511;51.326;12.344;2023-08-06T12:28:19;1.70;;;1.60;;
3002;SDS011;1511;51.326;12.344;2023-08-06T12:30:47;0.90;;;0.90;;
3002;SDS011;1511;51.326;12.344;2023-08-06T12:33:14;1.10;;;1.10;;
3002;SDS011;1511;51.326;12.344;2023-08-06T12:35:42;1.43;;;1.10;;
3002;SDS011;1511;51.326;12.344;2023-08-06T12:38:08;1.63;;;1.10;;
3002;SDS011;1511;51.326;12.344;2023-08-06T12:40:33;1.17;;;1.17;;
3002;SDS011;1511;51.326;12.344;2023-08-06T12:42:59;1.93;;;1.13;;
3002;SDS011;1511;51.326;12.344;2023-08-06T12:45:25;2.40;;;1.70;;
3002;SDS011;1511;51.326;12.344;2023-08-06T12:47:51;0.90;;;0.90;;
3002;SDS011;1511;51.326;12.344;2023-08-06T12:50:20;1.37;;;1.33;;
3002;SDS011;1511;51.326;12.344;2023-08-06T12:52:45;1.10;;;1.10;;
3002;SDS011;1511;51.326;12.344;2023-08-06T12:55:11;1.10;;;1.10;;
3002;SDS011;1511;51.326;12.344;2023-08-06T12:57:42;1.17;;;1.17;;
3002;SDS011;1511;51.326;12.344;2023-08-06T13:00:07;0.97;;;0.83;;
3002;SDS011;1511;51.326;12.344;2023-08-06T13:02:33;1.17;;;1.17;;
3002;SDS011;1511;51.326;12.344;2023-08-06T13:04:59;2.37;;;1.10;;
3002;SDS011;1511;51.326;12.344;2023-08-06T13:07:30;1.00;;;1.00;;
3002;SDS011;1511;51.326;12.344;2023-08-06T13:09:58;0.90;;;0.90;;
3002;SDS011;1511;51.326;12.344;2023-08-06T13:12:24;1.43;;;0.80;;
3002;SDS011;1511;51.326;12.344;2023-08-06T13:14:50;1.00;;;1.00;;
3002;SDS011;1511;51.326;12.344;2023-08-06T13:17:22;1.80;;;1.13;;
3002;SDS011;1511;51.326;12.344;2023-08-06T13:19:52;2.63;;;1.00;;
3002;SDS011;1511;51.326;12.344;2023-08-06T13:22:20;1.30;;;1.30;;
3002;SDS011;1511;51.326;12.344;2023-08-06T13:24:46;0.90;;;0.90;;
3002;SDS011;1511;51.326;12.344;2023-08-06T13:27:11;0.97;;;0.87;;
3002;SDS011;1511;51.326;12.344;2023-08-06T13:29:40;1.10;;;0.90;;
3002;SDS011;1511;51.326;12.344;2023-08-06T13:32:06;0.97;;;0.97;;
3002;SDS011;1511;51.326;12.344;2023-08-06T13:34:32;1.40;;;1.30;;
3002;SDS011;1511;51.326;12.344;2023-08-06T13:37:00;0.80;;;0.80;;
3002;SDS011;1511;51.326;12.344;2023-08-06T13:39:25;1.27;;;0.90;;
3002;SDS011;1511;51.326;12.344;2023-08-06T13:41:53;8.37;;;7.67;;
3002;SDS011;1511;51.326;12.344;2023-08-06T13:44:24;1.20;;;1.10;;
3002;SDS011;1511;51.326;12.344;2023-08-06T13:46:49;1.30;;;1.20;;
3002;SDS011;1511;51.326;12.344;2023-08-06T13:49:15;0.90;;;0.90;;
3002;SDS011;1511;51.326;12.344;2023-08-06T13:51:41;1.10;;;0.80;;
3002;SDS011;1511;51.326;12.344;2023-08-06T13:54:07;1.50;;;1.40;;
3002;SDS011;1511;51.326;12.344;2023-08-06T13:56:33;0.83;;;0.83;;
3002;SDS011;1511;51.326;12.344;2023-08-06T13:59:00;0.70;;;0.70;;
3002;SDS011;1511;51.326;12.344;2023-08-06T14:01:25;1.03;;;0.93;;
3002;SDS011;1511;51.326;12.344;2023-08-06T14:03:51;1.17;;;1.10;;
3002;SDS011;1511;51.326;12.344;2023-08-06T14:06:19;1.40;;;0.83;;
3002;SDS011;1511;51.326;12.344;2023-08-06T14:08:45;2.00;;;1.00;;
3002;SDS011;1511;51.326;12.344;2023-08-06T14:11:11;0.90;;;0.90;;
3002;SDS011;1511;51.326;12.344;2023-08-06T14:13:36;1.63;;;0.80;;
3002;SDS011;1511;51.326;12.344;2023-08-06T14:16:05;1.77;;;1.20;;
3002;SDS011;1511;51.326;12.344;2023-08-06T14:18:33;2.60;;;0.97;;
3002;SDS011;1511;51.326;12.344;2023-08-06T14:21:05;0.90;;;0.90;;
3002;SDS011;1511;51.326;12.344;2023-08-06T14:23:31;1.07;;;0.90;;
3002;SDS011;1511;51.326;12.344;2023-08-06T14:25:59;0.90;;;0.90;;
3002;SDS011;1511;51.326;12.344;2023-08-06T14:28:25;0.73;;;0.73;;
3002;SDS011;1511;51.326;12.344;2023-08-06T14:30:50;0.80;;;0.80;;
3002;SDS011;1511;51.326;12.344;2023-08-06T14:33:16;0.80;;;0.80;;
3002;SDS011;1511;51.326;12.344;2023-08-06T14:35:44;1.17;;;0.93;;
3002;SDS011;1511;51.326;12.344;2023-08-06T14:38:10;1.10;;;1.00;;
3002;SDS011;1511;51.326;12.344;2023-08-06T14:40:36;2.20;;;0.80;;
3002;SDS011;1511;51.326;12.344;2023-08-06T14:43:05;0.80;;;0.80;;
3002;SDS011;1511;51.326;12.344;2023-08-06T14:45:31;1.67;;;0.73;;
3002;SDS011;1511;51.326;12.344;2023-08-06T14:48:03;3.23;;;1.20;;
3002;SDS011;1511;51.326;12.344;2023-08-06T14:50:29;2.60;;;0.70;;
3002;SDS011;1511;51.326;12.344;2023-08-06T14:52:54;1.17;;;1.07;;
3002;SDS011;1511;51.326;12.344;2023-08-06T14:55:26;1.33;;;0.77;;
3002;SDS011;1511;51.326;12.344;2023-08-06T14:57:52;0.93;;;0.80;;
3002;SDS011;1511;51.326;12.344;2023-08-06T15:00:18;1.20;;;1.10;;
3002;SDS011;1511;51.326;12.344;2023-08-06T15:02:47;0.93;;;0.93;;
3002;SDS011;1511;51.326;12.344;2023-08-06T15:05:13;0.87;;;0.87;;
3002;SDS011;1511;51.326;12.344;2023-08-06T15:07:39;0.70;;;0.70;;
3002;SDS011;1511;51.326;12.344;2023-08-06T15:10:07;0.60;;;0.60;;
3002;SDS011;1511;51.326;12.344;2023-08-06T15:12:33;2.63;;;1.07;;
3002;SDS011;1511;51.326;12.344;2023-08-06T15:15:01;1.00;;;0.80;;